sensor_id;sensor_type;location;lat;lon;timestamp;temperature;humidity
18189;DHT22;9219;50.396;8.546;2022-08-19T00:00:34;21.20;99.90
18189;DHT22;9219;50.396;8.546;2022-08-19T00:03:02;21.10;99.90
18189;DHT22;9219;50.396;8.546;2022-08-19T00:10:35;20.90;99.90
18189;DHT22;9219;50.396;8.546;2022-08-19T00:13:03;20.90;99.90
18189;DHT22;9219;50.396;8.546;2022-08-19T00:15:31;20.80;99.90
18189;DHT22;9219;50.396;8.546;2022-08-19T00:17:59;20.90;99.90
18189;DHT22;9219;50.396;8.546;2022-08-19T00:20:26;21.00;99.90
18189;DHT22;9219;50.396;8.546;2022-08-19T00:22:54;21.00;99.90
18189;DHT22;9219;50.396;8.546;2022-08-19T00:25:22;20.80;99.90
18189;DHT22;9219;50.396;8.546;2022-08-19T00:33:01;20.80;99.90
18189;DHT22;9219;50.396;8.546;2022-08-19T00:35:28;20.60;99.90
18189;DHT22;9219;50.396;8.546;2022-08-19T00:37:56;20.60;99.90
18189;DHT22;9219;50.396;8.546;2022-08-19T00:40:24;20.60;99.90
18189;DHT22;9219;50.396;8.546;2022-08-19T00:42:56;20.50;99.90
18189;DHT22;9219;50.396;8.546;2022-08-19T00:45:27;20.30;99.90
18189;DHT22;9219;50.396;8.546;2022-08-19T00:48:04;20.20;99.90
18189;DHT22;9219;50.396;8.546;2022-08-19T00:53:40;20.30;99.90
18189;DHT22;9219;50.396;8.546;2022-08-19T00:56:08;20.20;99.90
18189;DHT22;9219;50.396;8.546;2022-08-19T00:58:37;20.20;99.90
18189;DHT22;9219;50.396;8.546;2022-08-19T01:01:04;20.10;99.90
18189;DHT22;9219;50.396;8.546;2022-08-19T01:03:34;20.10;99.90
18189;DHT22;9219;50.396;8.546;2022-08-19T01:06:22;20.20;99.90
18189;DHT22;9219;50.396;8.546;2022-08-19T01:08:50;20.20;99.90
18189;DHT22;9219;50.396;8.546;2022-08-19T01:15:55;20.10;99.90
18189;DHT22;9219;50.396;8.546;2022-08-19T01:18:25;20.30;99.90
18189;DHT22;9219;50.396;8.546;2022-08-19T01:20:55;20.30;99.90
18189;DHT22;9219;50.396;8.546;2022-08-19T01:23:25;20.30;99.90
18189;DHT22;9219;50.396;8.546;2022-08-19T01:26:11;20.20;99.90
18189;DHT22;9219;50.396;8.546;2022-08-19T01:28:41;20.20;99.90
18189;DHT22;9219;50.396;8.546;2022-08-19T01:31:16;20.00;99.90
18189;DHT22;9219;50.396;8.546;2022-08-19T01:38:59;19.90;99.90
18189;DHT22;9219;50.396;8.546;2022-08-19T01:41:27;19.90;99.90
18189;DHT22;9219;50.396;8.546;2022-08-19T01:43:56;19.80;99.90
18189;DHT22;9219;50.396;8.546;2022-08-19T01:46:44;19.90;99.90
18189;DHT22;9219;50.396;8.546;2022-08-19T01:49:11;20.00;99.90
18189;DHT22;9219;50.396;8.546;2022-08-19T01:51:39;19.90;99.90
18189;DHT22;9219;50.396;8.546;2022-08-19T01:54:07;20.10;99.90
18189;DHT22;9219;50.396;8.546;2022-08-19T02:00:55;20.00;99.90
18189;DHT22;9219;50.396;8.546;2022-08-19T02:03:23;20.10;99.90
18189;DHT22;9219;50.396;8.546;2022-08-19T02:05:55;20.00;99.90
18189;DHT22;9219;50.396;8.546;2022-08-19T02:08:23;20.00;99.90
18189;DHT22;9219;50.396;8.546;2022-08-19T02:10:51;20.10;99.90
18189;DHT22;9219;50.396;8.546;2022-08-19T02:13:19;20.00;99.90
18189;DHT22;9219;50.396;8.546;2022-08-19T02:15:52;19.90;99.90
18189;DHT22;9219;50.396;8.546;2022-08-19T02:23:20;19.90;99.90
18189;DHT22;9219;50.396;8.546;2022-08-19T02:25:48;19.70;99.90
18189;DHT22;9219;50.396;8.546;2022-08-19T02:28:16;19.60;99.90
18189;DHT22;9219;50.396;8.546;2022-08-19T02:30:46;19.50;99.90
18189;DHT22;9219;50.396;8.546;2022-08-19T02:33:14;19.60;99.90
18189;DHT22;9219;50.396;8.546;2022-08-19T02:35:42;19.60;99.90
18189;DHT22;9219;50.396;8.546;2022-08-19T02:38:10;19.60;99.90
18189;DHT22;9219;50.396;8.546;2022-08-19T02:45:54;19.80;99.90
18189;DHT22;9219;50.396;8.546;2022-08-19T02:48:24;19.80;99.90
18189;DHT22;9219;50.396;8.546;2022-08-19T02:50:52;20.00;99.90
18189;DHT22;9219;50.396;8.546;2022-08-19T02:53:22;20.20;99.90
18189;DHT22;9219;50.396;8.546;2022-08-19T02:55:50;20.10;99.90
18189;DHT22;9219;50.396;8.546;2022-08-19T02:58:19;20.10;99.90
18189;DHT22;9219;50.396;8.546;2022-08-19T03:00:50;20.00;99.90
18189;DHT22;9219;50.396;8.546;2022-08-19T03:08:27;20.20;99.90
18189;DHT22;9219;50.396;8.546;2022-08-19T03:10:55;20.20;99.90
18189;DHT22;9219;50.396;8.546;2022-08-19T03:13:22;20.10;99.90
18189;DHT22;9219;50.396;8.546;2022-08-19T03:15:50;20.00;99.90
18189;DHT22;9219;50.396;8.546;2022-08-19T03:18:19;20.10;99.90
18189;DHT22;9219;50.396;8.546;2022-08-19T03:20:51;20.00;99.90
18189;DHT22;9219;50.396;8.546;2022-08-19T03:23:21;19.90;99.90
18189;DHT22;9219;50.396;8.546;2022-08-19T03:28:29;19.80;99.90
18189;DHT22;9219;50.396;8.546;2022-08-19T03:30:58;19.60;99.90
18189;DHT22;9219;50.396;8.546;2022-08-19T03:33:28;19.50;99.90
18189;DHT22;9219;50.396;8.546;2022-08-19T03:36:09;19.50;99.90
18189;DHT22;9219;50.396;8.546;2022-08-19T03:38:39;19.50;99.90
18189;DHT22;9219;50.396;8.546;2022-08-19T03:41:10;19.40;99.90
18189;DHT22;9219;50.396;8.546;2022-08-19T03:43:44;19.40;99.90
18189;DHT22;9219;50.396;8.546;2022-08-19T03:51:19;19.40;99.90
18189;DHT22;9219;50.396;8.546;2022-08-19T03:53:58;19.50;99.90
18189;DHT22;9219;50.396;8.546;2022-08-19T03:56:27;19.50;99.90
18189;DHT22;9219;50.396;8.546;2022-08-19T03:58:56;19.60;99.90
18189;DHT22;9219;50.396;8.546;2022-08-19T04:01:25;19.60;99.90
18189;DHT22;9219;50.396;8.546;2022-08-19T04:04:01;19.60;99.90
18189;DHT22;9219;50.396;8.546;2022-08-19T04:06:33;19.80;99.90
18189;DHT22;9219;50.396;8.546;2022-08-19T04:14:11;19.70;99.90
18189;DHT22;9219;50.396;8.546;2022-08-19T04:16:40;19.60;99.90
18189;DHT22;9219;50.396;8.546;2022-08-19T04:19:09;19.50;99.90
18189;DHT22;9219;50.396;8.546;2022-08-19T04:21:36;19.50;99.90
18189;DHT22;9219;50.396;8.546;2022-08-19T04:24:05;19.60;99.90
18189;DHT22;9219;50.396;8.546;2022-08-19T04:26:35;19.50;99.90
18189;DHT22;9219;50.396;8.546;2022-08-19T04:29:07;19.40;99.90
18189;DHT22;9219;50.396;8.546;2022-08-19T04:37:30;19.20;99.90
18189;DHT22;9219;50.396;8.546;2022-08-19T04:40:03;19.40;99.90
18189;DHT22;9219;50.396;8.546;2022-08-19T04:42:49;19.40;99.90
18189;DHT22;9219;50.396;8.546;2022-08-19T04:45:16;19.30;99.90
18189;DHT22;9219;50.396;8.546;2022-08-19T04:47:44;19.40;99.90
18189;DHT22;9219;50.396;8.546;2022-08-19T04:50:24;19.40;99.90
18189;DHT22;9219;50.396;8.546;2022-08-19T04:52:52;19.40;99.90
18189;DHT22;9219;50.396;8.546;2022-08-19T05:00:17;19.40;99.90
18189;DHT22;9219;50.396;8.546;2022-08-19T05:02:45;19.40;99.90
18189;DHT22;9219;50.396;8.546;2022-08-19T05:05:13;19.40;99.90
18189;DHT22;9219;50.396;8.546;2022-08-19T05:07:40;19.30;99.90
18189;DHT22;9219;50.396;8.546;2022-08-19T05:10:09;19.20;99.90
18189;DHT22;9219;50.396;8.546;2022-08-19T05:12:37;19.20;99.90
18189;DHT22;9219;50.396;8.546;2022-08-19T05:15:07;19.00;99.90
18189;DHT22;9219;50.396;8.546;2022-08-19T05:17:37;19.00;99.90
18189;DHT22;9219;50.396;8.546;2022-08-19T05:25:44;19.10;99.90
18189;DHT22;9219;50.396;8.546;2022-08-19T05:28:11;19.20;99.90
18189;DHT22;9219;50.396;8.546;2022-08-19T05:30:40;19.30;99.90
18189;DHT22;9219;50.396;8.546;2022-08-19T05:33:13;19.30;99.90
18189;DHT22;9219;50.396;8.546;2022-08-19T05:35:41;19.30;99.90
18189;DHT22;9219;50.396;8.546;2022-08-19T05:38:08;19.30;99.90
18189;DHT22;9219;50.396;8.546;2022-08-19T05:40:35;19.20;99.90
18189;DHT22;9219;50.396;8.546;2022-08-19T05:48:08;19.40;99.90
18189;DHT22;9219;50.396;8.546;2022-08-19T05:50:38;19.40;99.90
18189;DHT22;9219;50.396;8.546;2022-08-19T05:53:07;19.60;99.90
18189;DHT22;9219;50.396;8.546;2022-08-19T05:55:35;19.70;99.90
18189;DHT22;9219;50.396;8.546;2022-08-19T05:58:05;19.90;99.90
18189;DHT22;9219;50.396;8.546;2022-08-19T06:00:33;20.00;99.90
18189;DHT22;9219;50.396;8.546;2022-08-19T06:03:01;20.20;99.90
18189;DHT22;9219;50.396;8.546;2022-08-19T06:10:39;20.30;99.90
18189;DHT22;9219;50.396;8.546;2022-08-19T06:13:06;20.40;99.90
18189;DHT22;9219;50.396;8.546;2022-08-19T06:15:33;20.30;99.90
18189;DHT22;9219;50.396;8.546;2022-08-19T06:18:01;20.30;99.90
18189;DHT22;9219;50.396;8.546;2022-08-19T06:20:28;20.20;99.90
18189;DHT22;9219;50.396;8.546;2022-08-19T06:23:16;20.30;99.90
18189;DHT22;9219;50.396;8.546;2022-08-19T06:25:45;20.20;99.90
18189;DHT22;9219;50.396;8.546;2022-08-19T06:33:14;20.30;99.90
18189;DHT22;9219;50.396;8.546;2022-08-19T06:35:44;20.50;99.90
18189;DHT22;9219;50.396;8.546;2022-08-19T06:38:12;20.50;99.90
18189;DHT22;9219;50.396;8.546;2022-08-19T06:40:41;20.40;99.90
18189;DHT22;9219;50.396;8.546;2022-08-19T06:43:13;20.60;99.90
18189;DHT22;9219;50.396;8.546;2022-08-19T06:45:44;20.80;99.90
18189;DHT22;9219;50.396;8.546;2022-08-19T06:48:14;21.10;99.90
18189;DHT22;9219;50.396;8.546;2022-08-19T06:55:55;20.70;99.90
18189;DHT22;9219;50.396;8.546;2022-08-19T06:58:26;20.60;99.90
18189;DHT22;9219;50.396;8.546;2022-08-19T07:00:59;20.70;99.90
18189;DHT22;9219;50.396;8.546;2022-08-19T07:03:34;20.90;99.90
18189;DHT22;9219;50.396;8.546;2022-08-19T07:06:04;20.90;99.90
18189;DHT22;9219;50.396;8.546;2022-08-19T07:08:36;21.10;99.90
18189;DHT22;9219;50.396;8.546;2022-08-19T07:11:12;21.00;99.90
18189;DHT22;9219;50.396;8.546;2022-08-19T07:13:41;21.10;99.90
18189;DHT22;9219;50.396;8.546;2022-08-19T07:16:23;21.30;99.90
18189;DHT22;9219;50.396;8.546;2022-08-19T07:18:56;21.40;99.90
18189;DHT22;9219;50.396;8.546;2022-08-19T07:21:26;21.50;99.90
18189;DHT22;9219;50.396;8.546;2022-08-19T07:23:56;21.30;99.90
18189;DHT22;9219;50.396;8.546;2022-08-19T07:26:32;21.30;99.90
18189;DHT22;9219;50.396;8.546;2022-08-19T07:29:00;21.40;99.90
18189;DHT22;9219;50.396;8.546;2022-08-19T07:31:31;21.40;99.90
18189;DHT22;9219;50.396;8.546;2022-08-19T07:38:37;21.30;99.90
18189;DHT22;9219;50.396;8.546;2022-08-19T07:41:09;21.20;99.90
18189;DHT22;9219;50.396;8.546;2022-08-19T07:43:40;21.40;99.90
18189;DHT22;9219;50.396;8.546;2022-08-19T07:46:10;21.50;99.90
18189;DHT22;9219;50.396;8.546;2022-08-19T07:48:40;21.60;99.90
18189;DHT22;9219;50.396;8.546;2022-08-19T07:51:09;21.60;99.90
18189;DHT22;9219;50.396;8.546;2022-08-19T07:53:42;21.50;99.90
18189;DHT22;9219;50.396;8.546;2022-08-19T07:59:36;21.80;99.90
18189;DHT22;9219;50.396;8.546;2022-08-19T08:02:04;21.80;99.90
18189;DHT22;9219;50.396;8.546;2022-08-19T08:04:32;21.90;99.90
18189;DHT22;9219;50.396;8.546;2022-08-19T08:07:19;22.10;99.90
18189;DHT22;9219;50.396;8.546;2022-08-19T08:10:12;22.40;99.90
18189;DHT22;9219;50.396;8.546;2022-08-19T08:12:47;22.40;99.90
18189;DHT22;9219;50.396;8.546;2022-08-19T08:18:47;22.60;99.90
18189;DHT22;9219;50.396;8.546;2022-08-19T08:21:19;22.50;99.90
18189;DHT22;9219;50.396;8.546;2022-08-19T08:23:47;22.50;99.90
18189;DHT22;9219;50.396;8.546;2022-08-19T08:26:14;22.60;99.90
18189;DHT22;9219;50.396;8.546;2022-08-19T08:28:45;22.80;99.90
18189;DHT22;9219;50.396;8.546;2022-08-19T08:31:15;23.10;99.90
18189;DHT22;9219;50.396;8.546;2022-08-19T08:33:47;23.30;99.90
18189;DHT22;9219;50.396;8.546;2022-08-19T08:41:25;23.10;99.90
18189;DHT22;9219;50.396;8.546;2022-08-19T08:43:56;23.10;99.90
18189;DHT22;9219;50.396;8.546;2022-08-19T08:46:27;23.00;99.90
18189;DHT22;9219;50.396;8.546;2022-08-19T08:49:03;23.00;99.90
18189;DHT22;9219;50.396;8.546;2022-08-19T08:51:35;23.00;99.90
18189;DHT22;9219;50.396;8.546;2022-08-19T08:54:12;23.20;99.90
18189;DHT22;9219;50.396;8.546;2022-08-19T08:56:42;23.40;99.90
18189;DHT22;9219;50.396;8.546;2022-08-19T09:01:45;23.60;99.90
18189;DHT22;9219;50.396;8.546;2022-08-19T09:04:13;23.70;99.90
18189;DHT22;9219;50.396;8.546;2022-08-19T09:06:48;23.80;99.90
18189;DHT22;9219;50.396;8.546;2022-08-19T09:09:23;23.90;99.90
18189;DHT22;9219;50.396;8.546;2022-08-19T09:12:04;24.30;99.90
18189;DHT22;9219;50.396;8.546;2022-08-19T09:14:43;24.20;99.90
18189;DHT22;9219;50.396;8.546;2022-08-19T09:17:19;24.10;99.90
18189;DHT22;9219;50.396;8.546;2022-08-19T09:25:02;23.60;99.90
18189;DHT22;9219;50.396;8.546;2022-08-19T09:27:30;23.40;99.90
18189;DHT22;9219;50.396;8.546;2022-08-19T09:30:13;23.50;99.90
18189;DHT22;9219;50.396;8.546;2022-08-19T09:32:42;23.80;99.90
18189;DHT22;9219;50.396;8.546;2022-08-19T09:35:11;23.90;99.90
18189;DHT22;9219;50.396;8.546;2022-08-19T09:37:39;23.90;99.90
18189;DHT22;9219;50.396;8.546;2022-08-19T09:40:13;23.80;99.90
18189;DHT22;9219;50.396;8.546;2022-08-19T09:47:00;23.60;99.90
18189;DHT22;9219;50.396;8.546;2022-08-19T09:49:30;23.70;99.90
18189;DHT22;9219;50.396;8.546;2022-08-19T09:51:58;24.00;99.90
18189;DHT22;9219;50.396;8.546;2022-08-19T09:54:27;24.10;99.90
18189;DHT22;9219;50.396;8.546;2022-08-19T09:56:58;24.40;99.90
18189;DHT22;9219;50.396;8.546;2022-08-19T09:59:29;24.80;99.90
18189;DHT22;9219;50.396;8.546;2022-08-19T10:02:00;24.90;99.90
18189;DHT22;9219;50.396;8.546;2022-08-19T10:04:37;24.90;99.90
18189;DHT22;9219;50.396;8.546;2022-08-19T10:12:41;25.00;99.90
18189;DHT22;9219;50.396;8.546;2022-08-19T10:15:14;25.00;99.90
18189;DHT22;9219;50.396;8.546;2022-08-19T10:17:54;25.10;99.90
18189;DHT22;9219;50.396;8.546;2022-08-19T10:20:24;25.50;99.90
18189;DHT22;9219;50.396;8.546;2022-08-19T10:22:52;25.80;99.90
18189;DHT22;9219;50.396;8.546;2022-08-19T10:25:20;26.10;99.90
18189;DHT22;9219;50.396;8.546;2022-08-19T10:27:49;26.10;99.90
18189;DHT22;9219;50.396;8.546;2022-08-19T10:30:22;26.00;99.90
18189;DHT22;9219;50.396;8.546;2022-08-19T10:37:58;25.90;99.90
18189;DHT22;9219;50.396;8.546;2022-08-19T10:40:35;25.80;99.90
18189;DHT22;9219;50.396;8.546;2022-08-19T10:43:03;25.40;99.90
18189;DHT22;9219;50.396;8.546;2022-08-19T10:45:33;25.20;99.90
18189;DHT22;9219;50.396;8.546;2022-08-19T10:48:22;25.30;99.90
18189;DHT22;9219;50.396;8.546;2022-08-19T10:50:57;25.60;99.90
18189;DHT22;9219;50.396;8.546;2022-08-19T10:53:51;25.70;99.90
18189;DHT22;9219;50.396;8.546;2022-08-19T10:56:19;25.70;99.90
18189;DHT22;9219;50.396;8.546;2022-08-19T11:06:47;25.80;99.90
18189;DHT22;9219;50.396;8.546;2022-08-19T11:09:17;26.20;99.90
18189;DHT22;9219;50.396;8.546;2022-08-19T11:11:45;26.30;99.90
18189;DHT22;9219;50.396;8.546;2022-08-19T11:14:15;26.70;99.90
18189;DHT22;9219;50.396;8.546;2022-08-19T11:16:47;26.50;99.90
18189;DHT22;9219;50.396;8.546;2022-08-19T11:19:15;26.10;99.90
18189;DHT22;9219;50.396;8.546;2022-08-19T11:21:48;25.90;99.90
18189;DHT22;9219;50.396;8.546;2022-08-19T11:29:26;26.40;99.90
18189;DHT22;9219;50.396;8.546;2022-08-19T11:31:54;26.50;99.90
18189;DHT22;9219;50.396;8.546;2022-08-19T11:34:24;26.70;99.90
18189;DHT22;9219;50.396;8.546;2022-08-19T11:36:55;26.70;99.90
18189;DHT22;9219;50.396;8.546;2022-08-19T11:39:28;26.50;99.90
18189;DHT22;9219;50.396;8.546;2022-08-19T11:41:59;26.20;99.90
18189;DHT22;9219;50.396;8.546;2022-08-19T11:44:51;26.10;99.90
18189;DHT22;9219;50.396;8.546;2022-08-19T11:51:53;26.40;99.90
18189;DHT22;9219;50.396;8.546;2022-08-19T11:54:22;26.90;99.90
18189;DHT22;9219;50.396;8.546;2022-08-19T11:56:49;26.80;99.90
18189;DHT22;9219;50.396;8.546;2022-08-19T11:59:17;26.80;99.90
18189;DHT22;9219;50.396;8.546;2022-08-19T12:01:45;26.60;99.90
18189;DHT22;9219;50.396;8.546;2022-08-19T12:04:13;26.40;99.90
18189;DHT22;9219;50.396;8.546;2022-08-19T12:06:44;26.30;99.90
18189;DHT22;9219;50.396;8.546;2022-08-19T12:09:13;26.10;99.90
18189;DHT22;9219;50.396;8.546;2022-08-19T12:19:08;26.30;99.90
18189;DHT22;9219;50.396;8.546;2022-08-19T12:21:36;26.80;99.90
18189;DHT22;9219;50.396;8.546;2022-08-19T12:24:05;26.90;99.90
18189;DHT22;9219;50.396;8.546;2022-08-19T12:26:34;27.00;99.90
18189;DHT22;9219;50.396;8.546;2022-08-19T12:29:20;27.40;99.90
18189;DHT22;9219;50.396;8.546;2022-08-19T12:31:50;27.50;99.90
18189;DHT22;9219;50.396;8.546;2022-08-19T12:34:18;27.70;99.90
18189;DHT22;9219;50.396;8.546;2022-08-19T12:41:51;27.80;99.90
18189;DHT22;9219;50.396;8.546;2022-08-19T12:44:21;27.80;99.90
18189;DHT22;9219;50.396;8.546;2022-08-19T12:46:58;27.60;99.90
18189;DHT22;9219;50.396;8.546;2022-08-19T12:49:27;27.30;99.90
18189;DHT22;9219;50.396;8.546;2022-08-19T12:52:15;27.40;99.90
18189;DHT22;9219;50.396;8.546;2022-08-19T12:54:53;27.70;99.90
18189;DHT22;9219;50.396;8.546;2022-08-19T13:03:05;27.70;99.90
18189;DHT22;9219;50.396;8.546;2022-08-19T13:05:34;27.80;99.90
18189;DHT22;9219;50.396;8.546;2022-08-19T13:08:02;27.70;99.90
18189;DHT22;9219;50.396;8.546;2022-08-19T13:10:32;27.60;99.90
18189;DHT22;9219;50.396;8.546;2022-08-19T13:13:02;27.60;99.90
18189;DHT22;9219;50.396;8.546;2022-08-19T13:15:34;27.70;99.90
18189;DHT22;9219;50.396;8.546;2022-08-19T13:18:04;27.40;99.90
18189;DHT22;9219;50.396;8.546;2022-08-19T13:28:38;27.20;99.90
18189;DHT22;9219;50.396;8.546;2022-08-19T13:31:25;27.20;99.90
18189;DHT22;9219;50.396;8.546;2022-08-19T13:34:14;27.50;99.90
18189;DHT22;9219;50.396;8.546;2022-08-19T13:36:42;27.20;99.90
18189;DHT22;9219;50.396;8.546;2022-08-19T13:39:11;26.90;99.90
18189;DHT22;9219;50.396;8.546;2022-08-19T13:41:44;27.30;99.90
18189;DHT22;9219;50.396;8.546;2022-08-19T13:44:16;27.40;99.90
18189;DHT22;9219;50.396;8.546;2022-08-19T13:51:46;27.30;99.90
18189;DHT22;9219;50.396;8.546;2022-08-19T13:54:15;27.10;99.90
18189;DHT22;9219;50.396;8.546;2022-08-19T13:56:45;27.00;99.90
18189;DHT22;9219;50.396;8.546;2022-08-19T13:59:13;27.10;99.90
18189;DHT22;9219;50.396;8.546;2022-08-19T14:01:41;27.00;99.90
18189;DHT22;9219;50.396;8.546;2022-08-19T14:04:09;26.90;99.90
18189;DHT22;9219;50.396;8.546;2022-08-19T14:06:37;26.90;99.90
18189;DHT22;9219;50.396;8.546;2022-08-19T14:14:10;27.10;99.90
18189;DHT22;9219;50.396;8.546;2022-08-19T14:16:42;27.40;99.90
18189;DHT22;9219;50.396;8.546;2022-08-19T14:19:09;27.00;99.90
18189;DHT22;9219;50.396;8.546;2022-08-19T14:21:37;27.00;99.90
18189;DHT22;9219;50.396;8.546;2022-08-19T14:24:07;27.20;99.90
18189;DHT22;9219;50.396;8.546;2022-08-19T14:26:35;26.90;99.90
18189;DHT22;9219;50.396;8.546;2022-08-19T14:29:03;27.00;99.90
18189;DHT22;9219;50.396;8.546;2022-08-19T14:37:21;27.00;99.90
18189;DHT22;9219;50.396;8.546;2022-08-19T14:39:50;26.80;99.90
18189;DHT22;9219;50.396;8.546;2022-08-19T14:42:18;27.00;99.90
18189;DHT22;9219;50.396;8.546;2022-08-19T14:44:48;27.00;99.90
18189;DHT22;9219;50.396;8.546;2022-08-19T14:47:16;27.00;99.90
18189;DHT22;9219;50.396;8.546;2022-08-19T14:49:43;27.10;99.90
18189;DHT22;9219;50.396;8.546;2022-08-19T14:52:14;26.80;99.90
18189;DHT22;9219;50.396;8.546;2022-08-19T14:59:46;26.80;99.90
18189;DHT22;9219;50.396;8.546;2022-08-19T15:02:16;26.50;99.90
18189;DHT22;9219;50.396;8.546;2022-08-19T15:05:01;26.50;99.90
18189;DHT22;9219;50.396;8.546;2022-08-19T15:07:29;26.60;99.90
18189;DHT22;9219;50.396;8.546;2022-08-19T15:09:57;26.20;99.90
18189;DHT22;9219;50.396;8.546;2022-08-19T15:12:26;26.50;99.90
18189;DHT22;9219;50.396;8.546;2022-08-19T15:14:55;26.50;99.90
18189;DHT22;9219;50.396;8.546;2022-08-19T15:22:29;26.60;99.90
18189;DHT22;9219;50.396;8.546;2022-08-19T15:24:59;27.30;99.90
18189;DHT22;9219;50.396;8.546;2022-08-19T15:27:28;27.30;99.90
18189;DHT22;9219;50.396;8.546;2022-08-19T15:29:56;27.10;99.90
18189;DHT22;9219;50.396;8.546;2022-08-19T15:32:27;26.80;99.90
18189;DHT22;9219;50.396;8.546;2022-08-19T15:34:57;26.60;99.90
18189;DHT22;9219;50.396;8.546;2022-08-19T15:37:30;26.90;99.90
18189;DHT22;9219;50.396;8.546;2022-08-19T15:44:58;26.70;99.90
18189;DHT22;9219;50.396;8.546;2022-08-19T15:47:28;26.80;99.90
18189;DHT22;9219;50.396;8.546;2022-08-19T15:50:05;26.60;99.90
18189;DHT22;9219;50.396;8.546;2022-08-19T15:52:37;26.80;99.90
18189;DHT22;9219;50.396;8.546;2022-08-19T15:55:17;26.70;99.90
18189;DHT22;9219;50.396;8.546;2022-08-19T15:58:00;26.70;99.90
18189;DHT22;9219;50.396;8.546;2022-08-19T16:06:50;27.00;99.90
18189;DHT22;9219;50.396;8.546;2022-08-19T16:09:20;27.30;99.90
18189;DHT22;9219;50.396;8.546;2022-08-19T16:11:54;27.20;99.90
18189;DHT22;9219;50.396;8.546;2022-08-19T16:14:30;27.10;99.90
18189;DHT22;9219;50.396;8.546;2022-08-19T16:17:00;26.90;99.90
18189;DHT22;9219;50.396;8.546;2022-08-19T16:19:29;26.90;99.90
18189;DHT22;9219;50.396;8.546;2022-08-19T16:21:59;27.00;99.90
18189;DHT22;9219;50.396;8.546;2022-08-19T16:30:17;26.80;99.90
18189;DHT22;9219;50.396;8.546;2022-08-19T16:32:45;26.90;99.90
18189;DHT22;9219;50.396;8.546;2022-08-19T16:35:13;26.60;99.90
18189;DHT22;9219;50.396;8.546;2022-08-19T16:37:43;26.60;99.90
18189;DHT22;9219;50.396;8.546;2022-08-19T16:40:12;26.70;99.90
18189;DHT22;9219;50.396;8.546;2022-08-19T16:42:40;26.70;99.90
18189;DHT22;9219;50.396;8.546;2022-08-19T16:45:08;26.60;99.90
18189;DHT22;9219;50.396;8.546;2022-08-19T16:52:38;27.00;99.90
18189;DHT22;9219;50.396;8.546;2022-08-19T16:55:08;26.80;99.90
18189;DHT22;9219;50.396;8.546;2022-08-19T16:57:41;26.90;99.90
18189;DHT22;9219;50.396;8.546;2022-08-19T17:00:10;26.90;99.90
18189;DHT22;9219;50.396;8.546;2022-08-19T17:02:39;26.70;99.90
18189;DHT22;9219;50.396;8.546;2022-08-19T17:05:08;26.50;99.90
18189;DHT22;9219;50.396;8.546;2022-08-19T17:07:37;26.40;99.90
18189;DHT22;9219;50.396;8.546;2022-08-19T17:15:10;26.30;99.90
18189;DHT22;9219;50.396;8.546;2022-08-19T17:17:39;26.30;99.90
18189;DHT22;9219;50.396;8.546;2022-08-19T17:20:08;26.20;99.90
18189;DHT22;9219;50.396;8.546;2022-08-19T17:22:35;26.10;99.90
18189;DHT22;9219;50.396;8.546;2022-08-19T17:25:03;26.10;99.90
18189;DHT22;9219;50.396;8.546;2022-08-19T17:27:32;26.10;99.90
18189;DHT22;9219;50.396;8.546;2022-08-19T17:30:01;26.20;99.90
18189;DHT22;9219;50.396;8.546;2022-08-19T17:37:36;25.90;99.90
18189;DHT22;9219;50.396;8.546;2022-08-19T17:40:08;26.00;99.90
18189;DHT22;9219;50.396;8.546;2022-08-19T17:42:37;25.80;99.90
18189;DHT22;9219;50.396;8.546;2022-08-19T17:45:09;25.80;99.90
18189;DHT22;9219;50.396;8.546;2022-08-19T17:47:37;25.70;99.90
18189;DHT22;9219;50.396;8.546;2022-08-19T17:50:07;25.80;99.90
18189;DHT22;9219;50.396;8.546;2022-08-19T17:52:37;25.80;99.90
18189;DHT22;9219;50.396;8.546;2022-08-19T18:00:14;25.80;99.90
18189;DHT22;9219;50.396;8.546;2022-08-19T18:02:46;25.50;99.90
18189;DHT22;9219;50.396;8.546;2022-08-19T18:05:18;25.40;99.90
18189;DHT22;9219;50.396;8.546;2022-08-19T18:07:47;25.50;99.90
18189;DHT22;9219;50.396;8.546;2022-08-19T18:10:18;25.60;99.90
18189;DHT22;9219;50.396;8.546;2022-08-19T18:12:46;25.50;99.90
18189;DHT22;9219;50.396;8.546;2022-08-19T18:15:18;25.30;99.90
18189;DHT22;9219;50.396;8.546;2022-08-19T18:22:50;25.50;99.90
18189;DHT22;9219;50.396;8.546;2022-08-19T18:25:46;25.10;99.90
18189;DHT22;9219;50.396;8.546;2022-08-19T18:28:17;24.90;99.90
18189;DHT22;9219;50.396;8.546;2022-08-19T18:30:46;24.80;99.90
18189;DHT22;9219;50.396;8.546;2022-08-19T18:33:15;24.80;99.90
18189;DHT22;9219;50.396;8.546;2022-08-19T18:35:46;25.00;99.90
18189;DHT22;9219;50.396;8.546;2022-08-19T18:38:17;25.20;99.90
18189;DHT22;9219;50.396;8.546;2022-08-19T18:46:26;25.10;99.90
18189;DHT22;9219;50.396;8.546;2022-08-19T18:49:16;24.60;99.90
18189;DHT22;9219;50.396;8.546;2022-08-19T18:51:44;24.50;99.90
18189;DHT22;9219;50.396;8.546;2022-08-19T18:54:12;24.50;99.90
18189;DHT22;9219;50.396;8.546;2022-08-19T18:56:39;24.40;99.90
18189;DHT22;9219;50.396;8.546;2022-08-19T18:59:14;24.30;99.90
18189;DHT22;9219;50.396;8.546;2022-08-19T19:01:45;24.30;99.90
18189;DHT22;9219;50.396;8.546;2022-08-19T19:09:23;24.10;99.90
18189;DHT22;9219;50.396;8.546;2022-08-19T19:11:55;23.90;99.90
18189;DHT22;9219;50.396;8.546;2022-08-19T19:14:27;23.90;99.90
18189;DHT22;9219;50.396;8.546;2022-08-19T19:17:15;23.90;99.90
18189;DHT22;9219;50.396;8.546;2022-08-19T19:19:44;23.80;99.90
18189;DHT22;9219;50.396;8.546;2022-08-19T19:22:17;23.80;99.90
18189;DHT22;9219;50.396;8.546;2022-08-19T19:24:49;23.60;99.90
18189;DHT22;9219;50.396;8.546;2022-08-19T19:32:30;23.60;99.90
18189;DHT22;9219;50.396;8.546;2022-08-19T19:35:06;23.40;99.90
18189;DHT22;9219;50.396;8.546;2022-08-19T19:37:38;23.40;99.90
18189;DHT22;9219;50.396;8.546;2022-08-19T19:40:11;23.20;99.90
18189;DHT22;9219;50.396;8.546;2022-08-19T19:42:41;23.20;99.90
18189;DHT22;9219;50.396;8.546;2022-08-19T19:45:10;23.30;99.90
18189;DHT22;9219;50.396;8.546;2022-08-19T19:47:42;23.40;99.90
18189;DHT22;9219;50.396;8.546;2022-08-19T19:50:19;23.30;99.90
18189;DHT22;9219;50.396;8.546;2022-08-19T19:55:32;23.00;99.90
18189;DHT22;9219;50.396;8.546;2022-08-19T19:58:01;23.00;99.90
18189;DHT22;9219;50.396;8.546;2022-08-19T20:00:31;22.90;99.90
18189;DHT22;9219;50.396;8.546;2022-08-19T20:03:01;22.80;99.90
18189;DHT22;9219;50.396;8.546;2022-08-19T20:05:30;22.80;99.90
18189;DHT22;9219;50.396;8.546;2022-08-19T20:07:59;22.80;99.90
18189;DHT22;9219;50.396;8.546;2022-08-19T20:10:47;22.70;99.90
18189;DHT22;9219;50.396;8.546;2022-08-19T20:18:20;22.60;99.90
18189;DHT22;9219;50.396;8.546;2022-08-19T20:20:50;22.70;99.90
18189;DHT22;9219;50.396;8.546;2022-08-19T20:23:20;22.60;99.90
18189;DHT22;9219;50.396;8.546;2022-08-19T20:25:51;22.50;99.90
18189;DHT22;9219;50.396;8.546;2022-08-19T20:28:20;22.60;99.90
18189;DHT22;9219;50.396;8.546;2022-08-19T20:30:52;22.70;99.90
18189;DHT22;9219;50.396;8.546;2022-08-19T20:33:21;22.60;99.90
18189;DHT22;9219;50.396;8.546;2022-08-19T20:38:29;22.60;99.90